sensor_id;sensor_type;location;lat;lon;timestamp;temperature;humidity
782;DHT22;374;52.568;13.402;2023-04-01T00:01:57;11.00;99.90
782;DHT22;374;52.568;13.402;2023-04-01T00:04:23;11.00;99.90
782;DHT22;374;52.568;13.402;2023-04-01T00:06:48;11.00;99.90
782;DHT22;374;52.568;13.402;2023-04-01T00:09:14;11.00;99.90
782;DHT22;374;52.568;13.402;2023-04-01T00:11:40;11.00;99.90
782;DHT22;374;52.568;13.402;2023-04-01T00:14:06;11.00;99.90
782;DHT22;374;52.568;13.402;2023-04-01T00:16:32;11.00;99.90
782;DHT22;374;52.568;13.402;2023-04-01T00:18:58;11.00;99.90
782;DHT22;374;52.568;13.402;2023-04-01T00:21:23;11.00;99.90
782;DHT22;374;52.568;13.402;2023-04-01T00:23:50;11.00;99.90
782;DHT22;374;52.568;13.402;2023-04-01T00:26:16;11.00;99.90
782;DHT22;374;52.568;13.402;2023-04-01T00:28:44;10.90;99.90
782;DHT22;374;52.568;13.402;2023-04-01T00:31:11;10.90;99.90
782;DHT22;374;52.568;13.402;2023-04-01T00:33:37;10.90;99.90
782;DHT22;374;52.568;13.402;2023-04-01T00:36:08;10.90;99.90
782;DHT22;374;52.568;13.402;2023-04-01T00:38:34;10.90;99.90
782;DHT22;374;52.568;13.402;2023-04-01T00:40:59;10.90;99.90
782;DHT22;374;52.568;13.402;2023-04-01T00:43:29;10.90;99.90
782;DHT22;374;52.568;13.402;2023-04-01T00:45:55;10.90;99.90
782;DHT22;374;52.568;13.402;2023-04-01T00:48:27;10.90;99.90
782;DHT22;374;52.568;13.402;2023-04-01T00:51:04;10.80;99.90
782;DHT22;374;52.568;13.402;2023-04-01T00:53:32;10.90;99.90
782;DHT22;374;52.568;13.402;2023-04-01T00:56:04;10.80;99.90
782;DHT22;374;52.568;13.402;2023-04-01T00:58:33;10.80;99.90
782;DHT22;374;52.568;13.402;2023-04-01T01:01:00;10.80;99.90
782;DHT22;374;52.568;13.402;2023-04-01T01:03:27;10.80;99.90
782;DHT22;374;52.568;13.402;2023-04-01T01:06:08;10.80;99.90
782;DHT22;374;52.568;13.402;2023-04-01T01:11:40;10.80;99.90
782;DHT22;374;52.568;13.402;2023-04-01T01:14:45;10.80;99.90
782;DHT22;374;52.568;13.402;2023-04-01T01:17:32;10.80;99.90
782;DHT22;374;52.568;13.402;2023-04-01T01:22:52;10.80;99.90
782;DHT22;374;52.568;13.402;2023-04-01T01:31:37;10.80;99.90
782;DHT22;374;52.568;13.402;2023-04-01T01:34:49;10.80;99.90
782;DHT22;374;52.568;13.402;2023-04-01T01:37:15;10.80;99.90
782;DHT22;374;52.568;13.402;2023-04-01T01:39:43;10.80;99.90
782;DHT22;374;52.568;13.402;2023-04-01T01:42:11;10.80;99.90
782;DHT22;374;52.568;13.402;2023-04-01T01:44:38;10.80;99.90
782;DHT22;374;52.568;13.402;2023-04-01T01:47:05;10.80;99.90
782;DHT22;374;52.568;13.402;2023-04-01T01:49:32;10.80;99.90
782;DHT22;374;52.568;13.402;2023-04-01T01:51:59;10.80;99.90
782;DHT22;374;52.568;13.402;2023-04-01T01:54:25;10.80;99.90
782;DHT22;374;52.568;13.402;2023-04-01T01:56:55;10.80;99.90
782;DHT22;374;52.568;13.402;2023-04-01T01:59:24;10.80;99.90
782;DHT22;374;52.568;13.402;2023-04-01T02:01:53;10.80;99.90
782;DHT22;374;52.568;13.402;2023-04-01T02:04:19;10.80;99.90
782;DHT22;374;52.568;13.402;2023-04-01T02:06:55;10.80;99.90
782;DHT22;374;52.568;13.402;2023-04-01T02:09:22;10.80;99.90
782;DHT22;374;52.568;13.402;2023-04-01T02:11:52;10.80;99.90
782;DHT22;374;52.568;13.402;2023-04-01T02:14:22;10.80;99.90
782;DHT22;374;52.568;13.402;2023-04-01T02:17:00;10.80;99.90
782;DHT22;374;52.568;13.402;2023-04-01T02:19:32;10.80;99.90
782;DHT22;374;52.568;13.402;2023-04-01T02:22:01;10.80;99.90
782;DHT22;374;52.568;13.402;2023-04-01T02:24:30;10.80;99.90
782;DHT22;374;52.568;13.402;2023-04-01T02:26:56;10.80;99.90
782;DHT22;374;52.568;13.402;2023-04-01T02:29:23;10.80;99.90
782;DHT22;374;52.568;13.402;2023-04-01T02:31:51;10.80;99.90
782;DHT22;374;52.568;13.402;2023-04-01T02:34:18;10.80;99.90
782;DHT22;374;52.568;13.402;2023-04-01T02:36:44;10.80;99.90
782;DHT22;374;52.568;13.402;2023-04-01T02:39:10;10.80;99.90
782;DHT22;374;52.568;13.402;2023-04-01T02:41:40;10.80;99.90
782;DHT22;374;52.568;13.402;2023-04-01T02:44:06;10.80;99.90
782;DHT22;374;52.568;13.402;2023-04-01T02:46:32;10.70;99.90
782;DHT22;374;52.568;13.402;2023-04-01T02:48:58;10.70;99.90
782;DHT22;374;52.568;13.402;2023-04-01T02:51:23;10.70;99.90
782;DHT22;374;52.568;13.402;2023-04-01T02:53:48;10.70;99.90
782;DHT22;374;52.568;13.402;2023-04-01T02:56:14;10.80;99.90
782;DHT22;374;52.568;13.402;2023-04-01T02:58:40;10.70;99.90
782;DHT22;374;52.568;13.402;2023-04-01T03:01:05;10.70;99.90
782;DHT22;374;52.568;13.402;2023-04-01T03:03:31;10.70;99.90
782;DHT22;374;52.568;13.402;2023-04-01T03:05:56;10.70;99.90
782;DHT22;374;52.568;13.402;2023-04-01T03:08:24;10.70;99.90
782;DHT22;374;52.568;13.402;2023-04-01T03:10:49;10.70;99.90
782;DHT22;374;52.568;13.402;2023-04-01T03:13:14;10.70;99.90
782;DHT22;374;52.568;13.402;2023-04-01T03:15:40;10.70;99.90
782;DHT22;374;52.568;13.402;2023-04-01T03:18:05;10.70;99.90
782;DHT22;374;52.568;13.402;2023-04-01T03:20:31;10.70;99.90
782;DHT22;374;52.568;13.402;2023-04-01T03:22:56;10.70;99.90
782;DHT22;374;52.568;13.402;2023-04-01T03:25:22;10.70;99.90
782;DHT22;374;52.568;13.402;2023-04-01T03:27:48;10.70;99.90
782;DHT22;374;52.568;13.402;2023-04-01T03:30:13;10.70;99.90
782;DHT22;374;52.568;13.402;2023-04-01T03:32:39;10.70;99.90
782;DHT22;374;52.568;13.402;2023-04-01T03:35:05;10.70;99.90
782;DHT22;374;52.568;13.402;2023-04-01T03:37:31;10.70;99.90
782;DHT22;374;52.568;13.402;2023-04-01T03:39:57;10.70;99.90
782;DHT22;374;52.568;13.402;2023-04-01T03:42:22;10.70;99.90
782;DHT22;374;52.568;13.402;2023-04-01T03:44:48;10.70;99.90
782;DHT22;374;52.568;13.402;2023-04-01T03:47:13;10.70;99.90
782;DHT22;374;52.568;13.402;2023-04-01T03:49:39;10.70;99.90
782;DHT22;374;52.568;13.402;2023-04-01T03:52:06;10.70;99.90
782;DHT22;374;52.568;13.402;2023-04-01T03:54:33;10.70;99.90
782;DHT22;374;52.568;13.402;2023-04-01T03:56:58;10.70;99.90
782;DHT22;374;52.568;13.402;2023-04-01T03:59:24;10.70;99.90
782;DHT22;374;52.568;13.402;2023-04-01T04:01:49;10.60;99.90
782;DHT22;374;52.568;13.402;2023-04-01T04:04:15;10.60;99.90
782;DHT22;374;52.568;13.402;2023-04-01T04:06:41;10.60;99.90
782;DHT22;374;52.568;13.402;2023-04-01T04:09:06;10.60;99.90
782;DHT22;374;52.568;13.402;2023-04-01T04:11:32;10.70;99.90
782;DHT22;374;52.568;13.402;2023-04-01T04:13:58;10.60;99.90
782;DHT22;374;52.568;13.402;2023-04-01T04:16:24;10.70;99.90
782;DHT22;374;52.568;13.402;2023-04-01T04:18:49;10.60;99.90
782;DHT22;374;52.568;13.402;2023-04-01T04:21:16;10.60;99.90
782;DHT22;374;52.568;13.402;2023-04-01T04:23:42;10.60;99.90
782;DHT22;374;52.568;13.402;2023-04-01T04:26:10;10.60;99.90
782;DHT22;374;52.568;13.402;2023-04-01T04:28:36;10.70;99.90
782;DHT22;374;52.568;13.402;2023-04-01T04:31:02;10.60;99.90
782;DHT22;374;52.568;13.402;2023-04-01T04:33:30;10.70;99.90
782;DHT22;374;52.568;13.402;2023-04-01T04:35:57;10.70;99.90
782;DHT22;374;52.568;13.402;2023-04-01T04:38:22;10.60;99.90
782;DHT22;374;52.568;13.402;2023-04-01T04:40:48;10.60;99.90
782;DHT22;374;52.568;13.402;2023-04-01T04:43:15;10.60;99.90
782;DHT22;374;52.568;13.402;2023-04-01T04:45:42;10.60;99.90
782;DHT22;374;52.568;13.402;2023-04-01T04:48:12;10.60;99.90
782;DHT22;374;52.568;13.402;2023-04-01T04:50:49;10.60;99.90
782;DHT22;374;52.568;13.402;2023-04-01T04:53:16;10.60;99.90
782;DHT22;374;52.568;13.402;2023-04-01T04:55:51;10.60;99.90
782;DHT22;374;52.568;13.402;2023-04-01T04:58:17;10.60;99.90
782;DHT22;374;52.568;13.402;2023-04-01T05:00:43;10.60;99.90
782;DHT22;374;52.568;13.402;2023-04-01T05:03:10;10.60;99.90
782;DHT22;374;52.568;13.402;2023-04-01T05:05:35;10.60;99.90
782;DHT22;374;52.568;13.402;2023-04-01T05:08:01;10.60;99.90
782;DHT22;374;52.568;13.402;2023-04-01T05:10:27;10.60;99.90
782;DHT22;374;52.568;13.402;2023-04-01T05:12:52;10.60;99.90
782;DHT22;374;52.568;13.402;2023-04-01T05:15:18;10.60;99.90
782;DHT22;374;52.568;13.402;2023-04-01T05:17:44;10.60;99.90
782;DHT22;374;52.568;13.402;2023-04-01T05:20:12;10.60;99.90
782;DHT22;374;52.568;13.402;2023-04-01T05:22:37;10.60;99.90
782;DHT22;374;52.568;13.402;2023-04-01T05:25:03;10.60;99.90
782;DHT22;374;52.568;13.402;2023-04-01T05:27:29;10.60;99.90
782;DHT22;374;52.568;13.402;2023-04-01T05:29:54;10.60;99.90
782;DHT22;374;52.568;13.402;2023-04-01T05:32:20;10.60;99.90
782;DHT22;374;52.568;13.402;2023-04-01T05:34:45;10.60;99.90
782;DHT22;374;52.568;13.402;2023-04-01T05:37:11;10.60;99.90
782;DHT22;374;52.568;13.402;2023-04-01T05:39:37;10.60;99.90
782;DHT22;374;52.568;13.402;2023-04-01T05:42:04;10.60;99.90
782;DHT22;374;52.568;13.402;2023-04-01T05:44:30;10.60;99.90
782;DHT22;374;52.568;13.402;2023-04-01T05:46:56;10.60;99.90
782;DHT22;374;52.568;13.402;2023-04-01T05:49:21;10.70;99.90
782;DHT22;374;52.568;13.402;2023-04-01T05:51:47;10.70;99.90
782;DHT22;374;52.568;13.402;2023-04-01T05:54:12;10.60;99.90
782;DHT22;374;52.568;13.402;2023-04-01T05:56:38;10.70;99.90
782;DHT22;374;52.568;13.402;2023-04-01T05:59:03;10.60;99.90
782;DHT22;374;52.568;13.402;2023-04-01T06:01:29;10.60;99.90
782;DHT22;374;52.568;13.402;2023-04-01T06:03:54;10.60;99.90
782;DHT22;374;52.568;13.402;2023-04-01T06:06:27;10.60;99.90
782;DHT22;374;52.568;13.402;2023-04-01T06:08:56;10.70;99.90
782;DHT22;374;52.568;13.402;2023-04-01T06:14:19;10.70;99.90
782;DHT22;374;52.568;13.402;2023-04-01T06:17:00;10.70;99.90
782;DHT22;374;52.568;13.402;2023-04-01T06:30:35;10.70;99.90
782;DHT22;374;52.568;13.402;2023-04-01T06:36:08;10.70;99.90
782;DHT22;374;52.568;13.402;2023-04-01T06:38:49;10.70;99.90
782;DHT22;374;52.568;13.402;2023-04-01T06:49:57;10.70;99.90
782;DHT22;374;52.568;13.402;2023-04-01T06:52:30;10.80;99.90
782;DHT22;374;52.568;13.402;2023-04-01T06:55:12;10.80;99.90
782;DHT22;374;52.568;13.402;2023-04-01T06:57:46;10.80;99.90
782;DHT22;374;52.568;13.402;2023-04-01T07:00:40;10.80;99.90
782;DHT22;374;52.568;13.402;2023-04-01T07:06:10;10.80;99.90
782;DHT22;374;52.568;13.402;2023-04-01T07:08:40;10.80;99.90
782;DHT22;374;52.568;13.402;2023-04-01T07:11:11;10.80;99.90
782;DHT22;374;52.568;13.402;2023-04-01T07:13:59;10.80;99.90
782;DHT22;374;52.568;13.402;2023-04-01T07:16:58;10.80;99.90
782;DHT22;374;52.568;13.402;2023-04-01T07:19:31;10.80;99.90
782;DHT22;374;52.568;13.402;2023-04-01T07:22:06;10.80;99.90
782;DHT22;374;52.568;13.402;2023-04-01T07:24:40;10.80;99.90
782;DHT22;374;52.568;13.402;2023-04-01T07:27:12;10.80;99.90
782;DHT22;374;52.568;13.402;2023-04-01T07:29:38;10.80;99.90
782;DHT22;374;52.568;13.402;2023-04-01T07:32:44;10.80;99.90
782;DHT22;374;52.568;13.402;2023-04-01T07:35:23;10.80;99.90
782;DHT22;374;52.568;13.402;2023-04-01T07:48:30;10.90;99.90
782;DHT22;374;52.568;13.402;2023-04-01T07:51:19;10.90;99.90
782;DHT22;374;52.568;13.402;2023-04-01T08:02:06;10.80;99.90
782;DHT22;374;52.568;13.402;2023-04-01T08:07:35;10.80;99.90
782;DHT22;374;52.568;13.402;2023-04-01T08:10:22;10.70;99.90
782;DHT22;374;52.568;13.402;2023-04-01T08:13:16;10.70;99.90
782;DHT22;374;52.568;13.402;2023-04-01T08:18:39;10.70;99.90
782;DHT22;374;52.568;13.402;2023-04-01T08:21:22;10.70;99.90
782;DHT22;374;52.568;13.402;2023-04-01T08:23:52;10.60;99.90
782;DHT22;374;52.568;13.402;2023-04-01T08:26:37;10.70;99.90
782;DHT22;374;52.568;13.402;2023-04-01T08:29:14;10.60;99.90
782;DHT22;374;52.568;13.402;2023-04-01T08:32:05;10.60;99.90
782;DHT22;374;52.568;13.402;2023-04-01T08:34:38;10.50;99.90
782;DHT22;374;52.568;13.402;2023-04-01T08:37:11;10.50;99.90
782;DHT22;374;52.568;13.402;2023-04-01T08:39:46;10.40;99.90
782;DHT22;374;52.568;13.402;2023-04-01T08:42:29;10.50;99.90
782;DHT22;374;52.568;13.402;2023-04-01T08:45:20;10.40;99.90
782;DHT22;374;52.568;13.402;2023-04-01T08:53:17;10.40;99.90
782;DHT22;374;52.568;13.402;2023-04-01T08:56:03;10.40;99.90
782;DHT22;374;52.568;13.402;2023-04-01T09:04:14;10.40;99.90
782;DHT22;374;52.568;13.402;2023-04-01T09:07:11;10.40;99.90
782;DHT22;374;52.568;13.402;2023-04-01T09:18:15;10.40;99.90
782;DHT22;374;52.568;13.402;2023-04-01T09:23:51;10.40;99.90
782;DHT22;374;52.568;13.402;2023-04-01T09:26:56;10.10;99.90
782;DHT22;374;52.568;13.402;2023-04-01T09:32:49;10.50;99.90
782;DHT22;374;52.568;13.402;2023-04-01T09:38:56;10.40;99.90
782;DHT22;374;52.568;13.402;2023-04-01T09:41:35;9.70;99.90
782;DHT22;374;52.568;13.402;2023-04-01T09:47:16;10.30;99.90
782;DHT22;374;52.568;13.402;2023-04-01T09:50:14;10.30;99.90
782;DHT22;374;52.568;13.402;2023-04-01T09:56:23;10.20;99.90
782;DHT22;374;52.568;13.402;2023-04-01T10:04:49;10.20;99.90
782;DHT22;374;52.568;13.402;2023-04-01T10:10:58;10.20;99.90
782;DHT22;374;52.568;13.402;2023-04-01T10:24:47;10.10;99.90
782;DHT22;374;52.568;13.402;2023-04-01T10:27:29;10.10;99.90
782;DHT22;374;52.568;13.402;2023-04-01T10:33:08;10.10;99.90
782;DHT22;374;52.568;13.402;2023-04-01T10:42:14;10.00;99.90
782;DHT22;374;52.568;13.402;2023-04-01T10:50:41;9.90;99.90
782;DHT22;374;52.568;13.402;2023-04-01T11:36:20;9.80;99.90
782;DHT22;374;52.568;13.402;2023-04-01T11:41:41;9.80;99.90
782;DHT22;374;52.568;13.402;2023-04-01T11:44:17;9.80;99.90
782;DHT22;374;52.568;13.402;2023-04-01T11:55:15;9.70;99.90
782;DHT22;374;52.568;13.402;2023-04-01T11:58:03;9.70;99.90
782;DHT22;374;52.568;13.402;2023-04-01T12:15:47;9.60;99.90
782;DHT22;374;52.568;13.402;2023-04-01T12:18:28;9.50;99.90
782;DHT22;374;52.568;13.402;2023-04-01T12:35:20;9.40;99.90
782;DHT22;374;52.568;13.402;2023-04-01T12:40:40;9.40;99.90
782;DHT22;374;52.568;13.402;2023-04-01T12:48:50;9.40;99.90
782;DHT22;374;52.568;13.402;2023-04-01T13:03:02;9.40;99.90
782;DHT22;374;52.568;13.402;2023-04-01T13:06:10;9.30;99.90
782;DHT22;374;52.568;13.402;2023-04-01T13:14:34;9.30;99.90
782;DHT22;374;52.568;13.402;2023-04-01T13:20:06;9.20;99.90
782;DHT22;374;52.568;13.402;2023-04-01T13:23:46;9.20;99.90
782;DHT22;374;52.568;13.402;2023-04-01T13:28:35;9.10;99.90
782;DHT22;374;52.568;13.402;2023-04-01T13:31:29;9.10;99.90
782;DHT22;374;52.568;13.402;2023-04-01T13:37:02;9.00;99.90
782;DHT22;374;52.568;13.402;2023-04-01T13:39:41;9.00;99.90
782;DHT22;374;52.568;13.402;2023-04-01T13:42:28;9.00;99.90
782;DHT22;374;52.568;13.402;2023-04-01T13:48:18;9.00;99.90
782;DHT22;374;52.568;13.402;2023-04-01T13:51:02;9.00;99.90
782;DHT22;374;52.568;13.402;2023-04-01T13:54:11;9.00;99.90
782;DHT22;374;52.568;13.402;2023-04-01T13:56:50;9.00;99.90
782;DHT22;374;52.568;13.402;2023-04-01T14:07:58;8.90;99.90
782;DHT22;374;52.568;13.402;2023-04-01T14:13:34;8.90;99.90
782;DHT22;374;52.568;13.402;2023-04-01T14:19:21;8.80;99.90
782;DHT22;374;52.568;13.402;2023-04-01T14:30:35;8.70;99.90
782;DHT22;374;52.568;13.402;2023-04-01T14:39:49;8.70;99.90
782;DHT22;374;52.568;13.402;2023-04-01T14:42:23;8.70;99.90
782;DHT22;374;52.568;13.402;2023-04-01T14:50:22;8.70;99.90
782;DHT22;374;52.568;13.402;2023-04-01T14:53:13;8.70;99.90
782;DHT22;374;52.568;13.402;2023-04-01T14:58:14;8.60;99.90
782;DHT22;374;52.568;13.402;2023-04-01T15:00:59;8.60;99.90
782;DHT22;374;52.568;13.402;2023-04-01T15:03:40;8.60;99.90
782;DHT22;374;52.568;13.402;2023-04-01T15:14:35;8.50;99.90
782;DHT22;374;52.568;13.402;2023-04-01T15:19:49;8.50;99.90
782;DHT22;374;52.568;13.402;2023-04-01T15:22:30;8.50;99.90
782;DHT22;374;52.568;13.402;2023-04-01T15:25:43;8.50;99.90
782;DHT22;374;52.568;13.402;2023-04-01T15:28:21;8.40;99.90
782;DHT22;374;52.568;13.402;2023-04-01T15:39:14;8.40;99.90
782;DHT22;374;52.568;13.402;2023-04-01T15:44:53;8.40;99.90
782;DHT22;374;52.568;13.402;2023-04-01T15:52:49;8.40;99.90
782;DHT22;374;52.568;13.402;2023-04-01T15:55:27;8.40;99.90
782;DHT22;374;52.568;13.402;2023-04-01T15:58:26;8.30;99.90
782;DHT22;374;52.568;13.402;2023-04-01T16:06:38;8.30;99.90
782;DHT22;374;52.568;13.402;2023-04-01T16:11:56;8.30;99.90
782;DHT22;374;52.568;13.402;2023-04-01T16:14:47;8.20;99.90
782;DHT22;374;52.568;13.402;2023-04-01T16:17:36;8.20;99.90
782;DHT22;374;52.568;13.402;2023-04-01T16:23:56;8.10;99.90
782;DHT22;374;52.568;13.402;2023-04-01T16:32:44;8.00;99.90
782;DHT22;374;52.568;13.402;2023-04-01T16:46:35;7.90;99.90
782;DHT22;374;52.568;13.402;2023-04-01T16:51:53;7.80;99.90
782;DHT22;374;52.568;13.402;2023-04-01T16:54:45;7.90;99.90
782;DHT22;374;52.568;13.402;2023-04-01T16:57:23;7.80;99.90
782;DHT22;374;52.568;13.402;2023-04-01T17:00:16;7.80;99.90
782;DHT22;374;52.568;13.402;2023-04-01T17:02:58;7.80;99.90
782;DHT22;374;52.568;13.402;2023-04-01T17:08:29;7.70;99.90
782;DHT22;374;52.568;13.402;2023-04-01T17:13:40;7.70;99.90
782;DHT22;374;52.568;13.402;2023-04-01T17:16:25;7.60;99.90
782;DHT22;374;52.568;13.402;2023-04-01T17:19:12;7.50;99.90
782;DHT22;374;52.568;13.402;2023-04-01T17:24:49;7.50;99.90
782;DHT22;374;52.568;13.402;2023-04-01T17:27:31;7.50;99.90
782;DHT22;374;52.568;13.402;2023-04-01T17:35:54;7.40;99.90
782;DHT22;374;52.568;13.402;2023-04-01T17:44:26;7.30;99.90
782;DHT22;374;52.568;13.402;2023-04-01T17:49:42;7.20;99.90
782;DHT22;374;52.568;13.402;2023-04-01T18:00:45;7.10;99.90
782;DHT22;374;52.568;13.402;2023-04-01T18:12:36;7.00;99.90
782;DHT22;374;52.568;13.402;2023-04-01T18:15:37;6.90;99.90
782;DHT22;374;52.568;13.402;2023-04-01T18:20:54;6.90;99.90
782;DHT22;374;52.568;13.402;2023-04-01T18:23:43;6.90;99.90
782;DHT22;374;52.568;13.402;2023-04-01T18:26:20;6.90;99.90
782;DHT22;374;52.568;13.402;2023-04-01T18:28:56;6.80;99.90
782;DHT22;374;52.568;13.402;2023-04-01T18:31:26;6.80;99.90
782;DHT22;374;52.568;13.402;2023-04-01T18:37:01;6.80;99.90
782;DHT22;374;52.568;13.402;2023-04-01T18:39:42;6.70;99.90
782;DHT22;374;52.568;13.402;2023-04-01T18:44:59;6.70;99.90
782;DHT22;374;52.568;13.402;2023-04-01T18:47:38;6.70;99.90
782;DHT22;374;52.568;13.402;2023-04-01T18:50:32;6.70;99.90
782;DHT22;374;52.568;13.402;2023-04-01T18:53:34;6.70;99.90
782;DHT22;374;52.568;13.402;2023-04-01T18:56:26;6.60;99.90
782;DHT22;374;52.568;13.402;2023-04-01T19:02:02;6.60;99.90
782;DHT22;374;52.568;13.402;2023-04-01T19:04:37;6.60;99.90
782;DHT22;374;52.568;13.402;2023-04-01T19:07:39;6.60;99.90
782;DHT22;374;52.568;13.402;2023-04-01T19:10:35;6.50;99.90
782;DHT22;374;52.568;13.402;2023-04-01T19:16:40;6.50;99.90
782;DHT22;374;52.568;13.402;2023-04-01T19:19:23;6.50;99.90
782;DHT22;374;52.568;13.402;2023-04-01T19:35:57;6.30;99.90
782;DHT22;374;52.568;13.402;2023-04-01T19:38:39;6.20;99.90
782;DHT22;374;52.568;13.402;2023-04-01T19:41:32;6.20;99.90
782;DHT22;374;52.568;13.402;2023-04-01T19:44:13;6.20;99.90
782;DHT22;374;52.568;13.402;2023-04-01T19:46:56;6.20;99.90
782;DHT22;374;52.568;13.402;2023-04-01T19:52:33;6.10;99.90
782;DHT22;374;52.568;13.402;2023-04-01T19:55:11;6.10;99.90
782;DHT22;374;52.568;13.402;2023-04-01T19:58:05;6.10;99.90
782;DHT22;374;52.568;13.402;2023-04-01T20:06:20;6.00;99.90
782;DHT22;374;52.568;13.402;2023-04-01T20:14:10;5.90;99.90
782;DHT22;374;52.568;13.402;2023-04-01T20:17:01;5.90;99.90
782;DHT22;374;52.568;13.402;2023-04-01T20:19:34;5.90;99.90
782;DHT22;374;52.568;13.402;2023-04-01T20:22:04;5.90;99.90
782;DHT22;374;52.568;13.402;2023-04-01T20:24:45;5.80;99.90
782;DHT22;374;52.568;13.402;2023-04-01T20:27:22;5.90;99.90
782;DHT22;374;52.568;13.402;2023-04-01T20:30:21;5.90;99.90
782;DHT22;374;52.568;13.402;2023-04-01T20:44:11;5.80;99.90
782;DHT22;374;52.568;13.402;2023-04-01T20:57:13;5.70;99.90
782;DHT22;374;52.568;13.402;2023-04-01T20:59:56;5.70;99.90
782;DHT22;374;52.568;13.402;2023-04-01T21:07:51;5.60;99.90
782;DHT22;374;52.568;13.402;2023-04-01T21:13:41;5.50;99.90
782;DHT22;374;52.568;13.402;2023-04-01T21:16:25;5.50;99.90
782;DHT22;374;52.568;13.402;2023-04-01T21:22:19;5.50;99.90
782;DHT22;374;52.568;13.402;2023-04-01T21:25:09;5.40;99.90
782;DHT22;374;52.568;13.402;2023-04-01T21:35:59;5.40;99.90
782;DHT22;374;52.568;13.402;2023-04-01T21:38:38;5.40;99.90
782;DHT22;374;52.568;13.402;2023-04-01T21:41:35;5.40;99.90
782;DHT22;374;52.568;13.402;2023-04-01T21:46:56;5.30;99.90
782;DHT22;374;52.568;13.402;2023-04-01T21:49:47;5.40;99.90
782;DHT22;374;52.568;13.402;2023-04-01T22:04:17;5.30;99.90
782;DHT22;374;52.568;13.402;2023-04-01T22:06:51;5.20;99.90
782;DHT22;374;52.568;13.402;2023-04-01T22:09:25;5.20;99.90
782;DHT22;374;52.568;13.402;2023-04-01T22:12:08;5.20;99.90
782;DHT22;374;52.568;13.402;2023-04-01T22:17:38;5.20;99.90
782;DHT22;374;52.568;13.402;2023-04-01T22:20:28;5.20;99.90
782;DHT22;374;52.568;13.402;2023-04-01T22:26:16;5.10;99.90
782;DHT22;374;52.568;13.402;2023-04-01T22:29:03;5.10;99.90
782;DHT22;374;52.568;13.402;2023-04-01T22:32:01;5.10;99.90
782;DHT22;374;52.568;13.402;2023-04-01T22:34:43;5.10;99.90
782;DHT22;374;52.568;13.402;2023-04-01T22:37:18;5.10;99.90
782;DHT22;374;52.568;13.402;2023-04-01T22:42:44;5.10;99.90
782;DHT22;374;52.568;13.402;2023-04-01T22:47:55;5.10;99.90
782;DHT22;374;52.568;13.402;2023-04-01T22:53:44;5.10;99.90
782;DHT22;374;52.568;13.402;2023-04-01T22:56:16;5.10;99.90
782;DHT22;374;52.568;13.402;2023-04-01T22:58:56;5.10;99.90
782;DHT22;374;52.568;13.402;2023-04-01T23:01:30;5.10;99.90
782;DHT22;374;52.568;13.402;2023-04-01T23:03:58;5.10;99.90
782;DHT22;374;52.568;13.402;2023-04-01T23:06:27;5.10;99.90
782;DHT22;374;52.568;13.402;2023-04-01T23:09:19;5.10;99.90
782;DHT22;374;52.568;13.402;2023-04-01T23:11:59;5.10;99.90
782;DHT22;374;52.568;13.402;2023-04-01T23:14:38;5.00;99.90
782;DHT22;374;52.568;13.402;2023-04-01T23:23:12;5.00;99.90
782;DHT22;374;52.568;13.402;2023-04-01T23:26:04;4.90;99.90
782;DHT22;374;52.568;13.402;2023-04-01T23:28:42;5.00;99.90
782;DHT22;374;52.568;13.402;2023-04-01T23:31:35;5.00;99.90
782;DHT22;374;52.568;13.402;2023-04-01T23:34:20;4.90;99.90
782;DHT22;374;52.568;13.402;2023-04-01T23:36:49;5.00;99.90
782;DHT22;374;52.568;13.402;2023-04-01T23:42:04;4.90;99.90
782;DHT22;374;52.568;13.402;2023-04-01T23:44:31;4.90;99.90
782;DHT22;374;52.568;13.402;2023-04-01T23:46:58;4.90;99.90
782;DHT22;374;52.568;13.402;2023-04-01T23:49:30;4.80;99.90
782;DHT22;374;52.568;13.402;2023-04-01T23:52:03;4.80;99.90
782;DHT22;374;52.568;13.402;2023-04-01T23:54:32;4.80;99.90
782;DHT22;374;52.568;13.402;2023-04-01T23:56:59;4.80;99.90
782;DHT22;374;52.568;13.402;2023-04-01T23:59:33;4.80;99.90
